createdAt,value
2022-09-03T00:01:20.348Z,16.90
2022-09-03T00:04:12.562Z,16.90
2022-09-03T00:07:03.418Z,17.10
2022-09-03T00:09:58.171Z,17.00
2022-09-03T00:12:46.193Z,17.00
2022-09-03T00:15:34.977Z,17.00
2022-09-03T00:18:24.144Z,17.10
2022-09-03T00:21:12.679Z,17.10
2022-09-03T00:24:01.576Z,17.20
2022-09-03T00:26:54.656Z,17.20
2022-09-03T00:29:44.585Z,17.20
2022-09-03T00:32:38.975Z,17.30
2022-09-03T00:35:28.774Z,17.40
2022-09-03T00:38:16.321Z,17.60
2022-09-03T00:41:08.120Z,17.50
2022-09-03T00:44:05.276Z,17.50
2022-09-03T00:46:54.788Z,17.60
2022-09-03T00:49:47.995Z,17.60
2022-09-03T00:52:53.548Z,17.60
2022-09-03T00:55:47.447Z,17.70
2022-09-03T00:58:43.553Z,17.70
2022-09-03T01:01:37.095Z,17.70
2022-09-03T01:04:29.638Z,17.70
2022-09-03T01:07:22.068Z,17.70
2022-09-03T01:10:15.396Z,17.70
2022-09-03T01:13:09.290Z,17.60
2022-09-03T01:16:04.439Z,17.60
2022-09-03T01:18:58.198Z,16.70
2022-09-03T01:21:53.407Z,17.60
2022-09-03T01:24:47.469Z,17.60
2022-09-03T01:27:42.054Z,17.60
2022-09-03T01:30:32.793Z,17.50
2022-09-03T01:33:24.187Z,17.60
2022-09-03T01:36:14.987Z,17.50
2022-09-03T01:39:03.825Z,17.50
2022-09-03T01:42:20.473Z,17.50
2022-09-03T01:45:21.527Z,17.60
2022-09-03T01:48:16.907Z,17.60
2022-09-03T01:51:07.771Z,17.60
2022-09-03T01:54:10.986Z,17.60
2022-09-03T01:57:35.444Z,17.60
2022-09-03T02:00:25.190Z,17.60
2022-09-03T02:03:15.304Z,17.60
2022-09-03T02:06:03.862Z,17.60
2022-09-03T02:08:51.333Z,17.60
2022-09-03T02:11:40.069Z,17.70
2022-09-03T02:14:28.152Z,17.70
2022-09-03T02:17:15.968Z,17.60
2022-09-03T02:20:08.149Z,17.60
2022-09-03T02:22:57.526Z,17.60
2022-09-03T02:25:46.816Z,17.50
2022-09-03T02:28:35.441Z,17.60
2022-09-03T02:31:22.941Z,17.50
2022-09-03T02:34:11.206Z,17.50
2022-09-03T02:37:00.375Z,17.50
2022-09-03T02:39:48.244Z,17.50
2022-09-03T02:42:35.818Z,17.50
2022-09-03T02:45:27.549Z,17.50
2022-09-03T02:48:16.820Z,17.50
2022-09-03T02:51:14.120Z,17.50
2022-09-03T02:54:04.157Z,17.40
2022-09-03T02:56:51.762Z,17.30
2022-09-03T02:59:39.869Z,17.40
2022-09-03T03:02:28.183Z,17.40
2022-09-03T03:05:20.106Z,17.40
2022-09-03T03:08:09.126Z,17.40
2022-09-03T03:11:00.895Z,17.30
2022-09-03T03:13:54.181Z,17.40
2022-09-03T03:16:41.610Z,18.50
2022-09-03T03:19:29.992Z,17.30
2022-09-03T03:22:19.008Z,17.30
2022-09-03T03:25:07.545Z,17.30
2022-09-03T03:27:57.889Z,17.20
2022-09-03T03:30:48.767Z,17.20
2022-09-03T03:33:36.555Z,17.20
2022-09-03T03:36:25.058Z,17.10
2022-09-03T03:39:12.423Z,17.10
2022-09-03T03:41:59.916Z,17.00
2022-09-03T03:44:49.497Z,17.00
2022-09-03T03:47:37.697Z,17.00
2022-09-03T03:50:25.577Z,17.00
2022-09-03T03:53:13.197Z,17.00
2022-09-03T03:56:01.561Z,17.00
2022-09-03T03:58:50.145Z,17.00
2022-09-03T04:01:39.213Z,17.00
2022-09-03T04:04:27.042Z,17.10
2022-09-03T04:07:14.784Z,17.00
2022-09-03T04:10:02.582Z,17.00
2022-09-03T04:12:49.989Z,17.00
2022-09-03T04:15:37.411Z,17.00
2022-09-03T04:18:26.915Z,17.00
2022-09-03T04:21:15.237Z,17.00
2022-09-03T04:24:02.646Z,17.00
2022-09-03T04:26:51.058Z,17.10
2022-09-03T04:29:38.469Z,17.20
2022-09-03T04:32:44.434Z,17.10
2022-09-03T04:35:33.873Z,17.10
2022-09-03T04:38:23.459Z,17.00
2022-09-03T04:41:11.944Z,17.10
2022-09-03T04:44:00.256Z,17.10
2022-09-03T04:46:48.344Z,17.10
2022-09-03T04:49:36.768Z,17.10
2022-09-03T04:52:30.055Z,17.20
2022-09-03T04:55:19.655Z,17.20
2022-09-03T04:58:08.889Z,17.20
2022-09-03T05:00:57.684Z,17.30
2022-09-03T05:03:45.991Z,17.40
2022-09-03T05:06:35.085Z,17.20
2022-09-03T05:09:24.431Z,17.20
2022-09-03T05:12:13.245Z,17.10
2022-09-03T05:15:01.227Z,17.10
2022-09-03T05:17:48.640Z,17.10
2022-09-03T05:20:35.995Z,17.00
2022-09-03T05:23:24.047Z,17.00
2022-09-03T05:26:14.378Z,17.00
2022-09-03T05:29:05.722Z,17.10
2022-09-03T05:31:54.196Z,17.00
2022-09-03T05:34:42.416Z,17.00
2022-09-03T05:37:30.274Z,17.00
2022-09-03T05:40:17.954Z,17.10
2022-09-03T05:43:08.583Z,17.20
2022-09-03T05:45:58.765Z,17.20
2022-09-03T05:48:48.002Z,17.30
2022-09-03T05:51:36.231Z,17.30
2022-09-03T05:54:23.630Z,17.40
2022-09-03T05:57:12.167Z,17.40
2022-09-03T06:00:01.649Z,17.50
2022-09-03T06:03:00.204Z,17.50
2022-09-03T06:05:51.275Z,17.50
2022-09-03T06:08:39.599Z,17.60
2022-09-03T06:11:29.619Z,17.60
2022-09-03T06:14:17.811Z,17.70
2022-09-03T06:17:11.410Z,17.70
2022-09-03T06:19:58.516Z,17.90
2022-09-03T06:22:49.800Z,17.90
2022-09-03T06:25:38.116Z,18.00
2022-09-03T06:28:27.333Z,18.10
2022-09-03T06:31:16.774Z,18.20
2022-09-03T06:34:06.208Z,18.30
2022-09-03T06:36:54.680Z,18.30
2022-09-03T06:39:42.991Z,18.50
2022-09-03T06:42:31.087Z,18.40
2022-09-03T06:45:18.806Z,18.40
2022-09-03T06:48:06.771Z,18.40
2022-09-03T06:50:59.816Z,18.50
2022-09-03T06:53:48.243Z,18.50
2022-09-03T06:56:40.283Z,18.50
2022-09-03T06:59:28.518Z,18.40
2022-09-03T07:02:15.922Z,18.50
2022-09-03T07:05:03.242Z,18.60
2022-09-03T07:07:53.932Z,18.70
2022-09-03T07:10:41.531Z,18.80
2022-09-03T07:13:29.514Z,18.80
2022-09-03T07:16:18.300Z,18.90
2022-09-03T07:19:06.348Z,19.20
2022-09-03T07:21:53.941Z,19.20
2022-09-03T07:24:43.151Z,19.20
2022-09-03T07:27:30.379Z,19.40
2022-09-03T07:30:19.699Z,19.50
2022-09-03T07:33:07.427Z,19.70
2022-09-03T07:35:55.128Z,19.90
2022-09-03T07:38:44.560Z,19.90
2022-09-03T07:41:34.088Z,19.90
2022-09-03T07:44:22.938Z,20.00
2022-09-03T07:47:10.738Z,20.20
2022-09-03T07:49:59.052Z,20.20
2022-09-03T07:52:46.228Z,20.30
2022-09-03T07:55:34.072Z,20.40
2022-09-03T07:58:25.126Z,20.50
2022-09-03T08:01:14.021Z,20.50
2022-09-03T08:04:02.918Z,20.00
2022-09-03T08:06:55.754Z,20.50
2022-09-03T08:09:43.463Z,20.60
2022-09-03T08:12:32.373Z,20.60
2022-09-03T08:15:21.269Z,20.50
2022-09-03T08:18:09.141Z,20.50
2022-09-03T08:21:00.746Z,20.40
2022-09-03T08:23:49.697Z,20.30
2022-09-03T08:26:38.888Z,20.20
2022-09-03T08:29:27.324Z,20.10
2022-09-03T08:32:16.324Z,20.10
2022-09-03T08:35:03.379Z,20.00
2022-09-03T08:37:56.850Z,20.00
2022-09-03T08:40:48.087Z,20.00
2022-09-03T08:43:38.282Z,20.00
2022-09-03T08:46:33.418Z,20.10
2022-09-03T08:49:25.662Z,20.10
2022-09-03T08:52:21.608Z,20.30
2022-09-03T08:55:20.208Z,20.50
2022-09-03T08:58:12.251Z,20.70
2022-09-03T09:01:03.587Z,20.80
2022-09-03T09:03:57.168Z,21.10
2022-09-03T09:06:52.029Z,21.20
2022-09-03T09:09:44.314Z,21.40
2022-09-03T09:12:42.833Z,21.60
2022-09-03T09:15:40.881Z,21.70
2022-09-03T09:18:36.368Z,21.80
2022-09-03T09:21:27.616Z,21.90
2022-09-03T09:24:22.105Z,21.90
2022-09-03T09:27:18.424Z,21.90
2022-09-03T09:30:07.721Z,22.00
2022-09-03T09:32:56.310Z,22.10
2022-09-03T09:35:43.919Z,22.10
2022-09-03T09:38:32.618Z,22.20
2022-09-03T09:41:27.542Z,22.40
2022-09-03T09:44:21.676Z,22.60
2022-09-03T09:47:12.016Z,22.80
2022-09-03T09:50:02.473Z,22.90
2022-09-03T09:53:00.750Z,23.10
2022-09-03T09:55:53.341Z,23.30
2022-09-03T09:58:42.738Z,23.80
2022-09-03T10:01:32.187Z,24.00
2022-09-03T10:04:24.507Z,24.10
2022-09-03T10:07:31.814Z,24.10
2022-09-03T10:10:22.117Z,24.00
2022-09-03T10:13:12.651Z,23.90
2022-09-03T10:16:03.795Z,23.80
2022-09-03T10:18:55.054Z,23.90
2022-09-03T10:21:45.114Z,24.00
2022-09-03T10:24:41.582Z,24.10
2022-09-03T10:27:29.575Z,24.40
2022-09-03T10:30:20.126Z,24.60
2022-09-03T10:33:12.924Z,24.60
2022-09-03T10:36:08.691Z,24.80
2022-09-03T10:39:01.402Z,25.00
2022-09-03T10:41:55.932Z,25.00
2022-09-03T10:44:54.054Z,24.80
2022-09-03T10:47:52.322Z,24.90
2022-09-03T10:50:48.584Z,25.10
2022-09-03T10:53:53.521Z,25.20
2022-09-03T10:56:47.494Z,25.20
2022-09-03T10:59:41.156Z,25.30
2022-09-03T11:02:35.941Z,25.20
2022-09-03T11:05:26.915Z,25.00
2022-09-03T11:08:19.134Z,24.90
2022-09-03T11:11:11.501Z,24.70
2022-09-03T11:14:00.770Z,24.60
2022-09-03T11:16:53.995Z,24.60
2022-09-03T11:19:48.326Z,24.40
2022-09-03T11:22:36.191Z,24.20
2022-09-03T11:25:28.669Z,24.30
2022-09-03T11:28:21.819Z,24.50
2022-09-03T11:31:18.419Z,24.60
2022-09-03T11:34:08.681Z,24.90
2022-09-03T11:37:07.599Z,25.00
2022-09-03T11:39:56.517Z,25.00
2022-09-03T11:42:47.495Z,24.70
2022-09-03T11:45:37.676Z,24.50
2022-09-03T11:48:36.087Z,24.50
2022-09-03T11:51:33.337Z,22.80
2022-09-03T11:54:27.408Z,24.30
2022-09-03T11:57:16.272Z,24.40
2022-09-03T12:00:13.561Z,24.40
2022-09-03T12:03:03.253Z,24.40
2022-09-03T12:05:57.945Z,24.40
2022-09-03T12:08:53.023Z,23.40
2022-09-03T12:11:45.926Z,24.30
2022-09-03T12:14:37.765Z,24.30
2022-09-03T12:17:32.293Z,24.40
2022-09-03T12:20:22.041Z,24.50
2022-09-03T12:23:11.834Z,24.60
2022-09-03T12:26:01.839Z,24.90
2022-09-03T12:28:50.579Z,25.10
2022-09-03T12:31:46.007Z,24.80
2022-09-03T12:34:35.065Z,24.80
2022-09-03T12:40:32.397Z,24.80
2022-09-03T12:46:34.193Z,25.10
2022-09-03T12:49:30.531Z,25.30
2022-09-03T12:52:22.417Z,25.40
2022-09-03T12:55:16.105Z,25.50
2022-09-03T12:58:11.436Z,25.40
2022-09-03T13:01:05.892Z,25.20
2022-09-03T13:03:57.841Z,25.20
2022-09-03T13:06:50.351Z,24.90
2022-09-03T13:09:41.417Z,25.10
2022-09-03T13:12:33.318Z,25.40
2022-09-03T13:15:23.745Z,25.50
2022-09-03T13:18:18.244Z,25.60
2022-09-03T13:21:13.248Z,25.90
2022-09-03T13:24:08.788Z,25.60
2022-09-03T13:27:02.610Z,25.70
2022-09-03T13:29:58.659Z,25.70
2022-09-03T13:32:52.070Z,25.70
2022-09-03T13:35:41.388Z,25.60
2022-09-03T13:38:37.152Z,25.70
2022-09-03T13:41:36.649Z,25.50
2022-09-03T13:44:33.730Z,25.50
2022-09-03T13:47:27.128Z,25.60
2022-09-03T13:50:24.337Z,25.90
2022-09-03T13:53:17.647Z,26.00
2022-09-03T13:56:10.179Z,26.00
2022-09-03T13:58:59.832Z,25.90
2022-09-03T14:01:59.130Z,25.90
2022-09-03T14:04:53.252Z,25.90
2022-09-03T14:07:48.334Z,25.90
2022-09-03T14:10:47.089Z,25.80
2022-09-03T14:13:44.068Z,25.90
2022-09-03T14:16:36.758Z,26.00
2022-09-03T14:19:38.872Z,26.00
2022-09-03T14:22:28.075Z,25.90
2022-09-03T14:25:16.862Z,25.90
2022-09-03T14:28:25.109Z,26.00
2022-09-03T14:31:16.089Z,26.10
2022-09-03T14:34:07.130Z,26.20
2022-09-03T14:36:58.675Z,26.30
2022-09-03T14:39:48.940Z,26.10
2022-09-03T14:42:50.057Z,26.00
2022-09-03T14:45:53.892Z,25.70
2022-09-03T14:48:48.777Z,25.50
2022-09-03T14:51:44.057Z,25.30
2022-09-03T14:54:52.368Z,25.30
2022-09-03T14:57:56.899Z,25.30
2022-09-03T15:00:50.806Z,25.10
2022-09-03T15:03:56.625Z,25.20
2022-09-03T15:06:51.399Z,25.20
2022-09-03T15:09:42.302Z,25.30
2022-09-03T15:12:34.573Z,25.40
2022-09-03T15:15:26.105Z,25.40
2022-09-03T15:18:18.204Z,25.60
2022-09-03T15:21:14.926Z,25.70
2022-09-03T15:24:07.961Z,25.90
2022-09-03T15:27:02.686Z,26.20
2022-09-03T15:29:53.829Z,26.40
2022-09-03T15:32:50.484Z,26.60
2022-09-03T15:35:42.555Z,26.90
2022-09-03T15:38:37.616Z,27.10
2022-09-03T15:41:35.851Z,27.00
2022-09-03T15:44:23.838Z,26.90
2022-09-03T15:47:14.475Z,26.70
2022-09-03T15:50:05.049Z,26.60
2022-09-03T15:52:57.837Z,26.50
2022-09-03T15:55:45.946Z,26.20
2022-09-03T15:58:35.939Z,25.90
2022-09-03T16:01:35.886Z,25.70
2022-09-03T16:04:29.122Z,25.50
2022-09-03T16:07:22.122Z,25.30
2022-09-03T16:10:30.296Z,25.20
2022-09-03T16:13:36.199Z,25.10
2022-09-03T16:16:26.434Z,25.00
2022-09-03T16:19:18.165Z,24.80
2022-09-03T16:22:08.401Z,24.70
2022-09-03T16:25:01.496Z,24.80
2022-09-03T16:27:53.713Z,24.80
2022-09-03T16:30:49.246Z,24.90
2022-09-03T16:33:41.753Z,24.90
2022-09-03T16:36:36.070Z,24.90
2022-09-03T16:39:32.264Z,24.80
2022-09-03T16:42:26.071Z,24.20
2022-09-03T16:45:18.828Z,22.80
2022-09-03T16:48:14.509Z,21.90
2022-09-03T16:51:10.840Z,21.80
2022-09-03T16:54:06.239Z,21.60
2022-09-03T16:57:01.719Z,21.80
2022-09-03T17:00:02.991Z,22.10
2022-09-03T17:03:05.659Z,22.30
2022-09-03T17:06:13.785Z,23.50
2022-09-03T17:09:04.646Z,22.10
2022-09-03T17:11:55.767Z,22.10
2022-09-03T17:15:04.149Z,22.00
2022-09-03T17:18:04.217Z,22.00
2022-09-03T17:20:59.336Z,22.10
2022-09-03T17:23:55.537Z,22.00
2022-09-03T17:26:49.073Z,21.90
2022-09-03T17:29:46.007Z,21.80
2022-09-03T17:32:46.349Z,21.70
2022-09-03T17:35:39.477Z,21.70
2022-09-03T17:38:30.891Z,21.70
2022-09-03T17:41:23.407Z,21.70
2022-09-03T17:44:16.825Z,21.70
2022-09-03T17:47:08.951Z,21.70
2022-09-03T17:49:58.722Z,21.50
2022-09-03T17:52:49.820Z,21.50
2022-09-03T17:55:38.768Z,21.40
2022-09-03T17:58:30.420Z,21.40
2022-09-03T18:01:20.475Z,21.40
2022-09-03T18:04:15.846Z,21.40
2022-09-03T18:07:09.558Z,21.30
2022-09-03T18:10:04.821Z,21.40
2022-09-03T18:13:02.975Z,21.20
2022-09-03T18:15:55.494Z,21.20
2022-09-03T18:18:46.460Z,21.10
2022-09-03T18:21:54.346Z,21.20
2022-09-03T18:25:01.721Z,21.10
2022-09-03T18:28:09.275Z,21.00
2022-09-03T18:31:14.306Z,20.90
2022-09-03T18:34:21.107Z,21.00
2022-09-03T18:37:26.482Z,20.90
2022-09-03T18:40:37.173Z,20.90
2022-09-03T18:43:52.044Z,20.90
2022-09-03T18:48:02.345Z,20.80
2022-09-03T18:50:31.280Z,20.80
2022-09-03T18:53:40.830Z,20.70
2022-09-03T18:56:48.527Z,20.60
2022-09-03T19:00:04.484Z,20.60
2022-09-03T19:03:15.639Z,20.30
2022-09-03T19:06:24.145Z,20.60
2022-09-03T19:09:33.623Z,20.50
2022-09-03T19:12:50.061Z,20.50
2022-09-03T19:16:09.319Z,20.50
2022-09-03T19:19:23.105Z,20.40
2022-09-03T19:22:28.604Z,20.40
2022-09-03T19:25:34.091Z,20.30
2022-09-03T19:28:40.858Z,20.20
2022-09-03T19:31:54.780Z,20.10
2022-09-03T19:35:05.539Z,20.10
2022-09-03T19:38:16.934Z,20.00
2022-09-03T19:41:27.323Z,19.90
2022-09-03T19:44:39.295Z,20.00
2022-09-03T19:47:56.538Z,19.80
2022-09-03T19:51:03.426Z,19.70
2022-09-03T19:54:08.913Z,19.70
2022-09-03T19:57:15.164Z,19.70
2022-09-03T20:00:29.319Z,19.60
2022-09-03T20:03:41.251Z,19.50
2022-09-03T20:06:46.793Z,19.40
2022-09-03T20:09:55.146Z,19.40
2022-09-03T20:12:45.614Z,19.40
2022-09-03T20:15:39.012Z,19.30
2022-09-03T20:18:36.921Z,19.30
2022-09-03T20:21:29.683Z,19.80
2022-09-03T20:24:24.892Z,19.20
2022-09-03T20:27:18.347Z,19.20
2022-09-03T20:30:07.912Z,19.10
2022-09-03T20:33:01.485Z,19.10
2022-09-03T20:35:55.363Z,19.10
2022-09-03T20:39:03.238Z,19.20
2022-09-03T20:41:55.594Z,19.30
2022-09-03T20:44:49.067Z,19.20
2022-09-03T20:47:48.678Z,19.30
2022-09-03T20:50:45.955Z,19.40
2022-09-03T20:53:50.664Z,19.30
2022-09-03T20:56:46.702Z,19.20
2022-09-03T20:59:40.196Z,19.20
2022-09-03T21:02:32.136Z,19.10
2022-09-03T21:05:24.229Z,19.10
2022-09-03T21:08:17.843Z,18.90
2022-09-03T21:11:09.355Z,18.90
2022-09-03T21:13:59.649Z,18.90
2022-09-03T21:16:52.487Z,18.80
2022-09-03T21:19:44.994Z,18.70
2022-09-03T21:22:35.824Z,18.70
2022-09-03T21:25:26.591Z,18.60
2022-09-03T21:28:18.306Z,18.60
2022-09-03T21:31:10.909Z,18.50
2022-09-03T21:34:01.591Z,18.50
2022-09-03T21:36:50.394Z,18.50
2022-09-03T21:39:42.522Z,18.50
2022-09-03T21:42:34.330Z,18.40
2022-09-03T21:45:26.667Z,18.30
2022-09-03T21:48:16.462Z,18.30
2022-09-03T21:51:07.086Z,18.40
2022-09-03T21:53:57.242Z,18.30
2022-09-03T21:56:51.683Z,18.20
2022-09-03T21:59:56.411Z,18.20
2022-09-03T22:02:46.334Z,18.20
2022-09-03T22:05:40.934Z,18.10
2022-09-03T22:08:32.031Z,18.10
2022-09-03T22:11:23.932Z,18.10
2022-09-03T22:14:13.639Z,18.10
2022-09-03T22:17:05.499Z,18.00
2022-09-03T22:19:54.551Z,18.00
2022-09-03T22:22:44.156Z,18.00
2022-09-03T22:25:36.064Z,18.00
2022-09-03T22:28:25.928Z,17.90
2022-09-03T22:31:18.240Z,17.90
2022-09-03T22:34:12.055Z,17.80
2022-09-03T22:37:03.716Z,17.80
2022-09-03T22:39:56.478Z,17.70
2022-09-03T22:42:52.013Z,17.70
2022-09-03T22:45:54.739Z,17.60
2022-09-03T22:48:57.749Z,17.60
2022-09-03T22:51:50.897Z,17.60
2022-09-03T22:54:45.281Z,17.70
2022-09-03T22:57:36.975Z,17.50
2022-09-03T23:00:25.157Z,17.50
2022-09-03T23:03:16.071Z,17.50
2022-09-03T23:06:04.770Z,17.40
2022-09-03T23:08:55.460Z,17.40
2022-09-03T23:11:46.640Z,17.30
2022-09-03T23:14:36.581Z,17.30
2022-09-03T23:20:20.340Z,17.20
2022-09-03T23:23:14.268Z,17.20
2022-09-03T23:26:12.323Z,17.20
2022-09-03T23:29:04.475Z,17.20
2022-09-03T23:31:52.979Z,17.10
2022-09-03T23:34:41.386Z,17.10
2022-09-03T23:37:38.483Z,17.10
2022-09-03T23:40:41.997Z,17.10
2022-09-03T23:43:44.189Z,17.00
2022-09-03T23:46:35.804Z,17.00
2022-09-03T23:49:30.273Z,17.10
2022-09-03T23:52:28.671Z,16.80
2022-09-03T23:55:20.393Z,16.90
2022-09-03T23:58:10.604Z,16.90
